sensor_id;sensor_type;location;lat;lon;timestamp;P1;durP1;ratioP1;P2;durP2;ratioP2
836;SDS011;400;53.550;9.932;2022-08-19T00:01:58;8.87;;;8.03;;
836;SDS011;400;53.550;9.932;2022-08-19T00:04:27;9.37;;;8.57;;
836;SDS011;400;53.550;9.932;2022-08-19T00:06:56;10.77;;;9.70;;
836;SDS011;400;53.550;9.932;2022-08-19T00:09:24;10.13;;;9.23;;
836;SDS011;400;53.550;9.932;2022-08-19T00:11:53;9.30;;;8.57;;
836;SDS011;400;53.550;9.932;2022-08-19T00:14:23;10.10;;;9.23;;
836;SDS011;400;53.550;9.932;2022-08-19T00:16:53;13.40;;;12.23;;
836;SDS011;400;53.550;9.932;2022-08-19T00:19:20;12.83;;;11.60;;
836;SDS011;400;53.550;9.932;2022-08-19T00:21:48;15.57;;;14.20;;
836;SDS011;400;53.550;9.932;2022-08-19T00:24:15;14.20;;;12.97;;
836;SDS011;400;53.550;9.932;2022-08-19T00:26:42;13.50;;;12.30;;
836;SDS011;400;53.550;9.932;2022-08-19T00:29:12;15.20;;;13.80;;
836;SDS011;400;53.550;9.932;2022-08-19T00:31:40;16.03;;;14.63;;
836;SDS011;400;53.550;9.932;2022-08-19T00:34:09;16.47;;;14.90;;
836;SDS011;400;53.550;9.932;2022-08-19T00:36:37;18.67;;;16.77;;
836;SDS011;400;53.550;9.932;2022-08-19T00:39:04;19.67;;;17.97;;
836;SDS011;400;53.550;9.932;2022-08-19T00:41:31;20.77;;;18.67;;
836;SDS011;400;53.550;9.932;2022-08-19T00:43:59;20.97;;;18.97;;
836;SDS011;400;53.550;9.932;2022-08-19T00:46:28;20.40;;;18.50;;
836;SDS011;400;53.550;9.932;2022-08-19T00:48:55;19.73;;;18.00;;
836;SDS011;400;53.550;9.932;2022-08-19T00:51:27;22.00;;;19.90;;
836;SDS011;400;53.550;9.932;2022-08-19T00:53:57;20.97;;;18.10;;
836;SDS011;400;53.550;9.932;2022-08-19T00:56:26;19.10;;;17.20;;
836;SDS011;400;53.550;9.932;2022-08-19T00:58:53;23.63;;;21.20;;
836;SDS011;400;53.550;9.932;2022-08-19T01:01:22;21.07;;;18.80;;
836;SDS011;400;53.550;9.932;2022-08-19T01:03:49;22.40;;;20.30;;
836;SDS011;400;53.550;9.932;2022-08-19T01:06:16;21.97;;;19.87;;
836;SDS011;400;53.550;9.932;2022-08-19T01:08:44;23.80;;;21.50;;
836;SDS011;400;53.550;9.932;2022-08-19T01:11:11;23.47;;;21.23;;
836;SDS011;400;53.550;9.932;2022-08-19T01:13:38;23.40;;;21.10;;
836;SDS011;400;53.550;9.932;2022-08-19T01:16:06;22.57;;;20.40;;
836;SDS011;400;53.550;9.932;2022-08-19T01:18:35;21.57;;;19.57;;
836;SDS011;400;53.550;9.932;2022-08-19T01:21:05;22.67;;;20.57;;
836;SDS011;400;53.550;9.932;2022-08-19T01:23:37;22.93;;;20.73;;
836;SDS011;400;53.550;9.932;2022-08-19T01:26:11;22.37;;;20.30;;
836;SDS011;400;53.550;9.932;2022-08-19T01:28:44;21.47;;;19.43;;
836;SDS011;400;53.550;9.932;2022-08-19T01:31:13;21.77;;;19.93;;
836;SDS011;400;53.550;9.932;2022-08-19T01:33:43;20.47;;;18.47;;
836;SDS011;400;53.550;9.932;2022-08-19T01:36:13;21.63;;;19.50;;
836;SDS011;400;53.550;9.932;2022-08-19T01:38:54;20.90;;;19.10;;
836;SDS011;400;53.550;9.932;2022-08-19T01:41:23;22.47;;;20.47;;
836;SDS011;400;53.550;9.932;2022-08-19T01:43:50;21.80;;;19.73;;
836;SDS011;400;53.550;9.932;2022-08-19T01:46:18;22.37;;;20.27;;
836;SDS011;400;53.550;9.932;2022-08-19T01:48:46;23.57;;;21.27;;
836;SDS011;400;53.550;9.932;2022-08-19T01:51:15;21.37;;;19.20;;
836;SDS011;400;53.550;9.932;2022-08-19T01:53:42;20.20;;;18.30;;
836;SDS011;400;53.550;9.932;2022-08-19T01:56:14;20.43;;;18.53;;
836;SDS011;400;53.550;9.932;2022-08-19T01:58:49;22.07;;;19.83;;
836;SDS011;400;53.550;9.932;2022-08-19T02:01:20;22.07;;;19.97;;
836;SDS011;400;53.550;9.932;2022-08-19T02:03:49;23.70;;;20.67;;
836;SDS011;400;53.550;9.932;2022-08-19T02:06:17;22.13;;;19.90;;
836;SDS011;400;53.550;9.932;2022-08-19T02:08:43;22.57;;;19.93;;
836;SDS011;400;53.550;9.932;2022-08-19T02:11:19;26.60;;;22.60;;
836;SDS011;400;53.550;9.932;2022-08-19T02:13:49;25.97;;;22.77;;
836;SDS011;400;53.550;9.932;2022-08-19T02:16:16;24.27;;;21.70;;
836;SDS011;400;53.550;9.932;2022-08-19T02:18:44;22.73;;;20.57;;
836;SDS011;400;53.550;9.932;2022-08-19T02:21:13;24.93;;;22.23;;
836;SDS011;400;53.550;9.932;2022-08-19T02:23:40;26.30;;;23.60;;
836;SDS011;400;53.550;9.932;2022-08-19T02:26:07;24.83;;;22.13;;
836;SDS011;400;53.550;9.932;2022-08-19T02:28:36;26.33;;;23.30;;
836;SDS011;400;53.550;9.932;2022-08-19T02:31:07;28.57;;;24.13;;
836;SDS011;400;53.550;9.932;2022-08-19T02:33:35;31.07;;;24.90;;
836;SDS011;400;53.550;9.932;2022-08-19T02:36:02;28.43;;;22.57;;
836;SDS011;400;53.550;9.932;2022-08-19T02:38:30;29.27;;;24.83;;
836;SDS011;400;53.550;9.932;2022-08-19T02:40:58;24.67;;;22.07;;
836;SDS011;400;53.550;9.932;2022-08-19T02:43:28;27.43;;;23.70;;
836;SDS011;400;53.550;9.932;2022-08-19T02:45:58;29.80;;;23.67;;
836;SDS011;400;53.550;9.932;2022-08-19T02:48:25;32.03;;;24.40;;
836;SDS011;400;53.550;9.932;2022-08-19T02:50:53;30.13;;;23.67;;
836;SDS011;400;53.550;9.932;2022-08-19T02:53:22;28.50;;;23.87;;
836;SDS011;400;53.550;9.932;2022-08-19T02:55:50;29.60;;;24.33;;
836;SDS011;400;53.550;9.932;2022-08-19T02:58:17;30.37;;;25.50;;
836;SDS011;400;53.550;9.932;2022-08-19T03:00:47;29.83;;;25.07;;
836;SDS011;400;53.550;9.932;2022-08-19T03:03:17;31.20;;;24.90;;
836;SDS011;400;53.550;9.932;2022-08-19T03:05:45;34.10;;;27.30;;
836;SDS011;400;53.550;9.932;2022-08-19T03:08:12;37.30;;;27.77;;
836;SDS011;400;53.550;9.932;2022-08-19T03:10:40;35.10;;;29.50;;
836;SDS011;400;53.550;9.932;2022-08-19T03:13:10;39.50;;;28.80;;
836;SDS011;400;53.550;9.932;2022-08-19T03:15:41;38.43;;;30.70;;
836;SDS011;400;53.550;9.932;2022-08-19T03:18:10;41.67;;;29.90;;
836;SDS011;400;53.550;9.932;2022-08-19T03:20:43;44.87;;;33.07;;
836;SDS011;400;53.550;9.932;2022-08-19T03:23:11;39.57;;;31.47;;
836;SDS011;400;53.550;9.932;2022-08-19T03:25:39;40.40;;;31.50;;
836;SDS011;400;53.550;9.932;2022-08-19T03:28:07;37.57;;;32.33;;
836;SDS011;400;53.550;9.932;2022-08-19T03:30:34;38.00;;;28.97;;
836;SDS011;400;53.550;9.932;2022-08-19T03:33:01;40.03;;;28.87;;
836;SDS011;400;53.550;9.932;2022-08-19T03:35:28;39.53;;;29.87;;
836;SDS011;400;53.550;9.932;2022-08-19T03:37:57;36.50;;;28.60;;
836;SDS011;400;53.550;9.932;2022-08-19T03:40:25;43.80;;;29.57;;
836;SDS011;400;53.550;9.932;2022-08-19T03:42:52;41.20;;;29.90;;
836;SDS011;400;53.550;9.932;2022-08-19T03:45:19;35.50;;;30.30;;
836;SDS011;400;53.550;9.932;2022-08-19T03:47:46;34.47;;;28.70;;
836;SDS011;400;53.550;9.932;2022-08-19T03:50:13;35.70;;;29.37;;
836;SDS011;400;53.550;9.932;2022-08-19T03:52:39;35.33;;;28.73;;
836;SDS011;400;53.550;9.932;2022-08-19T03:55:09;38.00;;;29.63;;
836;SDS011;400;53.550;9.932;2022-08-19T03:57:36;43.30;;;31.10;;
836;SDS011;400;53.550;9.932;2022-08-19T04:00:03;36.17;;;30.80;;
836;SDS011;400;53.550;9.932;2022-08-19T04:02:32;35.17;;;30.90;;
836;SDS011;400;53.550;9.932;2022-08-19T04:04:59;37.53;;;31.17;;
836;SDS011;400;53.550;9.932;2022-08-19T04:07:26;37.23;;;30.27;;
836;SDS011;400;53.550;9.932;2022-08-19T04:09:53;39.20;;;32.30;;
836;SDS011;400;53.550;9.932;2022-08-19T04:12:22;41.67;;;32.93;;
836;SDS011;400;53.550;9.932;2022-08-19T04:14:48;37.23;;;31.53;;
836;SDS011;400;53.550;9.932;2022-08-19T04:17:15;41.10;;;32.97;;
836;SDS011;400;53.550;9.932;2022-08-19T04:19:42;42.27;;;34.27;;
836;SDS011;400;53.550;9.932;2022-08-19T04:22:09;43.20;;;34.73;;
836;SDS011;400;53.550;9.932;2022-08-19T04:24:37;39.33;;;32.93;;
836;SDS011;400;53.550;9.932;2022-08-19T04:27:04;38.17;;;31.90;;
836;SDS011;400;53.550;9.932;2022-08-19T04:29:33;35.60;;;29.17;;
836;SDS011;400;53.550;9.932;2022-08-19T04:32:00;40.93;;;31.37;;
836;SDS011;400;53.550;9.932;2022-08-19T04:34:31;30.77;;;27.47;;
836;SDS011;400;53.550;9.932;2022-08-19T04:36:59;32.17;;;26.03;;
836;SDS011;400;53.550;9.932;2022-08-19T04:39:27;33.40;;;28.40;;
836;SDS011;400;53.550;9.932;2022-08-19T04:42:09;31.43;;;26.20;;
836;SDS011;400;53.550;9.932;2022-08-19T04:45:11;35.27;;;30.10;;
836;SDS011;400;53.550;9.932;2022-08-19T04:47:40;29.37;;;26.20;;
836;SDS011;400;53.550;9.932;2022-08-19T04:50:09;29.87;;;26.93;;
836;SDS011;400;53.550;9.932;2022-08-19T04:52:36;35.90;;;28.13;;
836;SDS011;400;53.550;9.932;2022-08-19T04:55:08;28.13;;;25.20;;
836;SDS011;400;53.550;9.932;2022-08-19T04:57:35;29.50;;;26.30;;
836;SDS011;400;53.550;9.932;2022-08-19T05:00:08;35.73;;;27.47;;
836;SDS011;400;53.550;9.932;2022-08-19T05:02:39;30.70;;;27.50;;
836;SDS011;400;53.550;9.932;2022-08-19T05:05:09;36.50;;;28.17;;
836;SDS011;400;53.550;9.932;2022-08-19T05:07:36;30.50;;;26.87;;
836;SDS011;400;53.550;9.932;2022-08-19T05:10:04;32.90;;;27.00;;
836;SDS011;400;53.550;9.932;2022-08-19T05:12:33;30.90;;;26.17;;
836;SDS011;400;53.550;9.932;2022-08-19T05:15:02;28.97;;;25.90;;
836;SDS011;400;53.550;9.932;2022-08-19T05:17:32;34.63;;;27.00;;
836;SDS011;400;53.550;9.932;2022-08-19T05:20:01;31.07;;;27.80;;
836;SDS011;400;53.550;9.932;2022-08-19T05:22:47;30.13;;;26.93;;
836;SDS011;400;53.550;9.932;2022-08-19T05:25:15;34.03;;;26.47;;
836;SDS011;400;53.550;9.932;2022-08-19T05:27:44;32.20;;;26.40;;
836;SDS011;400;53.550;9.932;2022-08-19T05:30:11;28.07;;;25.10;;
836;SDS011;400;53.550;9.932;2022-08-19T05:32:41;28.17;;;25.17;;
836;SDS011;400;53.550;9.932;2022-08-19T05:35:09;26.90;;;23.80;;
836;SDS011;400;53.550;9.932;2022-08-19T05:37:41;26.13;;;23.40;;
836;SDS011;400;53.550;9.932;2022-08-19T05:40:12;26.70;;;23.97;;
836;SDS011;400;53.550;9.932;2022-08-19T05:42:43;24.80;;;22.40;;
836;SDS011;400;53.550;9.932;2022-08-19T05:45:11;22.50;;;19.97;;
836;SDS011;400;53.550;9.932;2022-08-19T05:47:41;25.87;;;22.03;;
836;SDS011;400;53.550;9.932;2022-08-19T05:50:08;22.30;;;19.90;;
836;SDS011;400;53.550;9.932;2022-08-19T05:52:37;24.23;;;20.63;;
836;SDS011;400;53.550;9.932;2022-08-19T05:55:05;25.77;;;21.80;;
836;SDS011;400;53.550;9.932;2022-08-19T05:57:34;27.30;;;22.33;;
836;SDS011;400;53.550;9.932;2022-08-19T06:00:08;23.00;;;19.70;;
836;SDS011;400;53.550;9.932;2022-08-19T06:02:38;21.30;;;18.53;;
836;SDS011;400;53.550;9.932;2022-08-19T06:05:09;21.67;;;19.33;;
836;SDS011;400;53.550;9.932;2022-08-19T06:07:38;21.20;;;19.07;;
836;SDS011;400;53.550;9.932;2022-08-19T06:10:08;20.03;;;17.93;;
836;SDS011;400;53.550;9.932;2022-08-19T06:12:38;23.60;;;17.77;;
836;SDS011;400;53.550;9.932;2022-08-19T06:15:07;20.00;;;17.90;;
836;SDS011;400;53.550;9.932;2022-08-19T06:17:35;20.83;;;17.37;;
836;SDS011;400;53.550;9.932;2022-08-19T06:20:11;18.87;;;16.67;;
836;SDS011;400;53.550;9.932;2022-08-19T06:22:44;18.57;;;16.57;;
836;SDS011;400;53.550;9.932;2022-08-19T06:25:19;17.37;;;15.40;;
836;SDS011;400;53.550;9.932;2022-08-19T06:27:47;20.63;;;16.83;;
836;SDS011;400;53.550;9.932;2022-08-19T06:30:18;18.57;;;16.67;;
836;SDS011;400;53.550;9.932;2022-08-19T06:32:46;18.50;;;15.97;;
836;SDS011;400;53.550;9.932;2022-08-19T06:35:15;21.30;;;16.50;;
836;SDS011;400;53.550;9.932;2022-08-19T06:37:42;17.30;;;15.63;;
836;SDS011;400;53.550;9.932;2022-08-19T06:40:10;18.07;;;16.27;;
836;SDS011;400;53.550;9.932;2022-08-19T06:42:37;17.97;;;15.50;;
836;SDS011;400;53.550;9.932;2022-08-19T06:45:05;18.50;;;16.40;;
836;SDS011;400;53.550;9.932;2022-08-19T06:47:33;21.43;;;18.00;;
836;SDS011;400;53.550;9.932;2022-08-19T06:50:01;29.43;;;25.10;;
836;SDS011;400;53.550;9.932;2022-08-19T06:52:34;18.80;;;13.87;;
836;SDS011;400;53.550;9.932;2022-08-19T06:55:06;19.60;;;14.70;;
836;SDS011;400;53.550;9.932;2022-08-19T06:57:36;15.00;;;13.40;;
836;SDS011;400;53.550;9.932;2022-08-19T07:00:03;20.00;;;14.10;;
836;SDS011;400;53.550;9.932;2022-08-19T07:02:33;17.37;;;13.30;;
836;SDS011;400;53.550;9.932;2022-08-19T07:05:02;14.60;;;13.10;;
836;SDS011;400;53.550;9.932;2022-08-19T07:07:30;14.13;;;12.70;;
836;SDS011;400;53.550;9.932;2022-08-19T07:09:58;15.27;;;12.80;;
836;SDS011;400;53.550;9.932;2022-08-19T07:12:25;14.47;;;12.90;;
836;SDS011;400;53.550;9.932;2022-08-19T07:14:56;12.87;;;11.33;;
836;SDS011;400;53.550;9.932;2022-08-19T07:17:24;12.57;;;10.87;;
836;SDS011;400;53.550;9.932;2022-08-19T07:19:52;12.97;;;11.63;;
836;SDS011;400;53.550;9.932;2022-08-19T07:22:20;14.57;;;10.83;;
836;SDS011;400;53.550;9.932;2022-08-19T07:24:48;13.73;;;11.67;;
836;SDS011;400;53.550;9.932;2022-08-19T07:27:24;12.37;;;11.30;;
836;SDS011;400;53.550;9.932;2022-08-19T07:29:56;11.80;;;10.70;;
836;SDS011;400;53.550;9.932;2022-08-19T07:32:28;13.23;;;11.70;;
836;SDS011;400;53.550;9.932;2022-08-19T07:34:55;12.87;;;11.60;;
836;SDS011;400;53.550;9.932;2022-08-19T07:37:26;10.90;;;9.90;;
836;SDS011;400;53.550;9.932;2022-08-19T07:40:03;11.73;;;10.67;;
836;SDS011;400;53.550;9.932;2022-08-19T07:42:52;10.83;;;9.83;;
836;SDS011;400;53.550;9.932;2022-08-19T07:45:23;9.70;;;8.90;;
836;SDS011;400;53.550;9.932;2022-08-19T07:47:58;12.73;;;11.50;;
836;SDS011;400;53.550;9.932;2022-08-19T07:50:30;10.00;;;9.17;;
836;SDS011;400;53.550;9.932;2022-08-19T07:53:03;10.17;;;9.17;;
836;SDS011;400;53.550;9.932;2022-08-19T07:55:30;11.67;;;10.50;;
836;SDS011;400;53.550;9.932;2022-08-19T07:57:58;37.20;;;33.93;;
836;SDS011;400;53.550;9.932;2022-08-19T08:00:27;12.63;;;11.17;;
836;SDS011;400;53.550;9.932;2022-08-19T08:02:59;10.97;;;9.87;;
836;SDS011;400;53.550;9.932;2022-08-19T08:05:26;11.63;;;10.43;;
836;SDS011;400;53.550;9.932;2022-08-19T08:08:14;12.67;;;10.80;;
836;SDS011;400;53.550;9.932;2022-08-19T08:11:01;10.80;;;9.80;;
836;SDS011;400;53.550;9.932;2022-08-19T08:13:31;12.60;;;10.30;;
836;SDS011;400;53.550;9.932;2022-08-19T08:16:00;10.93;;;9.93;;
836;SDS011;400;53.550;9.932;2022-08-19T08:18:32;13.97;;;12.27;;
836;SDS011;400;53.550;9.932;2022-08-19T08:21:07;14.57;;;11.50;;
836;SDS011;400;53.550;9.932;2022-08-19T08:23:41;12.10;;;10.90;;
836;SDS011;400;53.550;9.932;2022-08-19T08:26:11;13.93;;;12.53;;
836;SDS011;400;53.550;9.932;2022-08-19T08:28:40;14.07;;;12.63;;
836;SDS011;400;53.550;9.932;2022-08-19T08:31:08;13.37;;;12.10;;
836;SDS011;400;53.550;9.932;2022-08-19T08:33:35;14.00;;;12.60;;
836;SDS011;400;53.550;9.932;2022-08-19T08:36:04;14.77;;;13.27;;
836;SDS011;400;53.550;9.932;2022-08-19T08:38:33;14.80;;;13.57;;
836;SDS011;400;53.550;9.932;2022-08-19T08:41:06;16.13;;;14.57;;
836;SDS011;400;53.550;9.932;2022-08-19T08:43:46;15.00;;;13.60;;
836;SDS011;400;53.550;9.932;2022-08-19T08:46:17;16.20;;;14.80;;
836;SDS011;400;53.550;9.932;2022-08-19T08:48:49;16.50;;;14.90;;
836;SDS011;400;53.550;9.932;2022-08-19T08:51:22;17.20;;;15.17;;
836;SDS011;400;53.550;9.932;2022-08-19T08:53:53;18.87;;;16.73;;
836;SDS011;400;53.550;9.932;2022-08-19T08:56:22;19.47;;;17.10;;
836;SDS011;400;53.550;9.932;2022-08-19T08:58:54;19.03;;;16.90;;
836;SDS011;400;53.550;9.932;2022-08-19T09:01:26;18.57;;;16.57;;
836;SDS011;400;53.550;9.932;2022-08-19T09:03:54;18.80;;;16.80;;
836;SDS011;400;53.550;9.932;2022-08-19T09:06:25;21.80;;;16.83;;
836;SDS011;400;53.550;9.932;2022-08-19T09:09:04;17.50;;;15.70;;
836;SDS011;400;53.550;9.932;2022-08-19T09:11:47;22.33;;;16.23;;
836;SDS011;400;53.550;9.932;2022-08-19T09:14:35;17.10;;;15.60;;
836;SDS011;400;53.550;9.932;2022-08-19T09:17:18;16.10;;;14.50;;
836;SDS011;400;53.550;9.932;2022-08-19T09:19:57;17.20;;;15.47;;
836;SDS011;400;53.550;9.932;2022-08-19T09:22:31;15.87;;;14.27;;
836;SDS011;400;53.550;9.932;2022-08-19T09:24:59;17.20;;;13.87;;
836;SDS011;400;53.550;9.932;2022-08-19T09:27:27;15.63;;;13.80;;
836;SDS011;400;53.550;9.932;2022-08-19T09:30:00;44.00;;;17.47;;
836;SDS011;400;53.550;9.932;2022-08-19T09:32:30;15.60;;;12.83;;
836;SDS011;400;53.550;9.932;2022-08-19T09:35:02;15.27;;;13.77;;
836;SDS011;400;53.550;9.932;2022-08-19T09:37:36;15.70;;;14.10;;
836;SDS011;400;53.550;9.932;2022-08-19T09:40:05;16.57;;;14.63;;
836;SDS011;400;53.550;9.932;2022-08-19T09:42:34;15.20;;;13.93;;
836;SDS011;400;53.550;9.932;2022-08-19T09:45:07;13.83;;;12.13;;
836;SDS011;400;53.550;9.932;2022-08-19T09:47:39;14.20;;;12.87;;
836;SDS011;400;53.550;9.932;2022-08-19T09:50:08;14.50;;;13.10;;
836;SDS011;400;53.550;9.932;2022-08-19T09:52:36;16.77;;;13.50;;
836;SDS011;400;53.550;9.932;2022-08-19T09:55:15;13.90;;;12.50;;
836;SDS011;400;53.550;9.932;2022-08-19T09:57:42;17.07;;;15.53;;
836;SDS011;400;53.550;9.932;2022-08-19T10:00:12;15.73;;;14.37;;
836;SDS011;400;53.550;9.932;2022-08-19T10:02:39;18.37;;;16.40;;
836;SDS011;400;53.550;9.932;2022-08-19T10:05:08;16.67;;;15.20;;
836;SDS011;400;53.550;9.932;2022-08-19T10:07:52;16.50;;;14.90;;
836;SDS011;400;53.550;9.932;2022-08-19T10:10:19;16.43;;;14.50;;
836;SDS011;400;53.550;9.932;2022-08-19T10:12:48;18.13;;;16.43;;
836;SDS011;400;53.550;9.932;2022-08-19T10:15:22;18.70;;;16.90;;
836;SDS011;400;53.550;9.932;2022-08-19T10:17:52;19.83;;;17.77;;
836;SDS011;400;53.550;9.932;2022-08-19T10:20:19;20.10;;;17.97;;
836;SDS011;400;53.550;9.932;2022-08-19T10:22:50;20.40;;;18.40;;
836;SDS011;400;53.550;9.932;2022-08-19T10:25:21;18.77;;;17.17;;
836;SDS011;400;53.550;9.932;2022-08-19T10:27:54;19.40;;;17.17;;
836;SDS011;400;53.550;9.932;2022-08-19T10:30:30;18.57;;;16.80;;
836;SDS011;400;53.550;9.932;2022-08-19T10:33:01;18.17;;;16.40;;
836;SDS011;400;53.550;9.932;2022-08-19T10:38:44;18.57;;;16.77;;
836;SDS011;400;53.550;9.932;2022-08-19T10:41:15;17.27;;;15.73;;
836;SDS011;400;53.550;9.932;2022-08-19T10:43:43;18.07;;;16.27;;
836;SDS011;400;53.550;9.932;2022-08-19T10:46:13;18.83;;;16.90;;
836;SDS011;400;53.550;9.932;2022-08-19T10:48:43;18.00;;;15.57;;
836;SDS011;400;53.550;9.932;2022-08-19T10:51:15;20.30;;;18.40;;
836;SDS011;400;53.550;9.932;2022-08-19T10:54:02;19.07;;;17.07;;
836;SDS011;400;53.550;9.932;2022-08-19T10:56:34;19.83;;;18.03;;
836;SDS011;400;53.550;9.932;2022-08-19T10:59:21;17.77;;;16.27;;
836;SDS011;400;53.550;9.932;2022-08-19T11:01:53;22.00;;;19.90;;
836;SDS011;400;53.550;9.932;2022-08-19T11:04:25;18.73;;;16.83;;
836;SDS011;400;53.550;9.932;2022-08-19T11:07:00;19.90;;;17.90;;
836;SDS011;400;53.550;9.932;2022-08-19T11:09:37;20.73;;;18.70;;
836;SDS011;400;53.550;9.932;2022-08-19T11:12:19;19.47;;;17.37;;
836;SDS011;400;53.550;9.932;2022-08-19T11:14:50;20.93;;;18.80;;
836;SDS011;400;53.550;9.932;2022-08-19T11:17:21;18.83;;;17.03;;
836;SDS011;400;53.550;9.932;2022-08-19T11:19:53;19.13;;;17.30;;
836;SDS011;400;53.550;9.932;2022-08-19T11:22:30;19.60;;;17.63;;
836;SDS011;400;53.550;9.932;2022-08-19T11:24:58;20.20;;;18.43;;
836;SDS011;400;53.550;9.932;2022-08-19T11:27:30;18.53;;;16.63;;
836;SDS011;400;53.550;9.932;2022-08-19T11:30:10;19.53;;;17.37;;
836;SDS011;400;53.550;9.932;2022-08-19T11:32:52;17.90;;;15.67;;
836;SDS011;400;53.550;9.932;2022-08-19T11:35:21;18.33;;;16.40;;
836;SDS011;400;53.550;9.932;2022-08-19T11:37:54;17.77;;;16.07;;
836;SDS011;400;53.550;9.932;2022-08-19T11:40:27;17.83;;;16.37;;
836;SDS011;400;53.550;9.932;2022-08-19T11:42:58;16.60;;;15.10;;
836;SDS011;400;53.550;9.932;2022-08-19T11:45:30;16.60;;;15.03;;
836;SDS011;400;53.550;9.932;2022-08-19T11:47:59;16.10;;;14.50;;
836;SDS011;400;53.550;9.932;2022-08-19T11:50:27;16.97;;;15.57;;
836;SDS011;400;53.550;9.932;2022-08-19T11:52:55;15.20;;;14.00;;
836;SDS011;400;53.550;9.932;2022-08-19T11:55:26;16.30;;;14.93;;
836;SDS011;400;53.550;9.932;2022-08-19T11:57:59;17.43;;;15.73;;
836;SDS011;400;53.550;9.932;2022-08-19T12:00:29;17.07;;;15.67;;
836;SDS011;400;53.550;9.932;2022-08-19T12:02:57;17.47;;;15.87;;
836;SDS011;400;53.550;9.932;2022-08-19T12:05:36;18.30;;;15.20;;
836;SDS011;400;53.550;9.932;2022-08-19T12:08:12;16.40;;;15.00;;
836;SDS011;400;53.550;9.932;2022-08-19T12:10:43;17.33;;;15.90;;
836;SDS011;400;53.550;9.932;2022-08-19T12:13:11;15.87;;;14.57;;
836;SDS011;400;53.550;9.932;2022-08-19T12:15:45;18.20;;;16.50;;
836;SDS011;400;53.550;9.932;2022-08-19T12:18:14;15.53;;;14.00;;
836;SDS011;400;53.550;9.932;2022-08-19T12:20:42;18.70;;;17.00;;
836;SDS011;400;53.550;9.932;2022-08-19T12:23:16;29.93;;;27.50;;
836;SDS011;400;53.550;9.932;2022-08-19T12:25:49;15.70;;;14.40;;
836;SDS011;400;53.550;9.932;2022-08-19T12:28:18;15.80;;;14.30;;
836;SDS011;400;53.550;9.932;2022-08-19T12:30:48;15.40;;;14.23;;
836;SDS011;400;53.550;9.932;2022-08-19T12:33:23;15.10;;;13.90;;
836;SDS011;400;53.550;9.932;2022-08-19T12:36:00;15.93;;;14.60;;
836;SDS011;400;53.550;9.932;2022-08-19T12:38:41;15.53;;;14.30;;
836;SDS011;400;53.550;9.932;2022-08-19T12:41:11;15.03;;;13.73;;
836;SDS011;400;53.550;9.932;2022-08-19T12:43:44;15.40;;;14.20;;
836;SDS011;400;53.550;9.932;2022-08-19T12:46:15;15.13;;;13.83;;
836;SDS011;400;53.550;9.932;2022-08-19T12:48:45;15.33;;;14.03;;
836;SDS011;400;53.550;9.932;2022-08-19T12:51:15;15.70;;;14.60;;
836;SDS011;400;53.550;9.932;2022-08-19T12:53:46;14.50;;;13.50;;
836;SDS011;400;53.550;9.932;2022-08-19T12:56:15;14.00;;;12.90;;
836;SDS011;400;53.550;9.932;2022-08-19T12:58:46;14.07;;;12.87;;
836;SDS011;400;53.550;9.932;2022-08-19T13:01:17;15.17;;;13.80;;
836;SDS011;400;53.550;9.932;2022-08-19T13:03:50;13.97;;;12.97;;
836;SDS011;400;53.550;9.932;2022-08-19T13:06:20;14.20;;;13.10;;
836;SDS011;400;53.550;9.932;2022-08-19T13:08:48;13.77;;;12.67;;
836;SDS011;400;53.550;9.932;2022-08-19T13:11:16;14.07;;;13.00;;
836;SDS011;400;53.550;9.932;2022-08-19T13:13:50;15.60;;;14.40;;
836;SDS011;400;53.550;9.932;2022-08-19T13:16:23;15.60;;;14.30;;
836;SDS011;400;53.550;9.932;2022-08-19T13:18:54;15.73;;;14.37;;
836;SDS011;400;53.550;9.932;2022-08-19T13:21:25;14.80;;;13.73;;
836;SDS011;400;53.550;9.932;2022-08-19T13:23:58;16.87;;;15.67;;
836;SDS011;400;53.550;9.932;2022-08-19T13:26:29;15.77;;;14.67;;
836;SDS011;400;53.550;9.932;2022-08-19T13:28:57;16.67;;;15.30;;
836;SDS011;400;53.550;9.932;2022-08-19T13:31:39;16.60;;;15.30;;
836;SDS011;400;53.550;9.932;2022-08-19T13:34:31;16.40;;;15.20;;
836;SDS011;400;53.550;9.932;2022-08-19T13:37:03;15.43;;;14.23;;
836;SDS011;400;53.550;9.932;2022-08-19T13:39:33;17.77;;;16.47;;
836;SDS011;400;53.550;9.932;2022-08-19T13:42:03;15.93;;;14.80;;
836;SDS011;400;53.550;9.932;2022-08-19T13:44:36;14.60;;;13.20;;
836;SDS011;400;53.550;9.932;2022-08-19T13:47:06;15.03;;;13.93;;
836;SDS011;400;53.550;9.932;2022-08-19T13:49:40;14.80;;;13.70;;
836;SDS011;400;53.550;9.932;2022-08-19T13:52:16;15.17;;;13.97;;
836;SDS011;400;53.550;9.932;2022-08-19T13:54:44;15.87;;;14.67;;
836;SDS011;400;53.550;9.932;2022-08-19T13:57:12;15.40;;;14.20;;
836;SDS011;400;53.550;9.932;2022-08-19T13:59:45;16.00;;;14.87;;
836;SDS011;400;53.550;9.932;2022-08-19T14:02:12;16.20;;;15.00;;
836;SDS011;400;53.550;9.932;2022-08-19T14:04:42;16.63;;;15.23;;
836;SDS011;400;53.550;9.932;2022-08-19T14:07:14;17.27;;;16.00;;
836;SDS011;400;53.550;9.932;2022-08-19T14:09:46;16.60;;;15.40;;
836;SDS011;400;53.550;9.932;2022-08-19T14:12:14;17.57;;;16.17;;
836;SDS011;400;53.550;9.932;2022-08-19T14:14:44;17.37;;;16.10;;
836;SDS011;400;53.550;9.932;2022-08-19T14:17:12;16.57;;;15.27;;
836;SDS011;400;53.550;9.932;2022-08-19T14:19:47;16.07;;;14.87;;
836;SDS011;400;53.550;9.932;2022-08-19T14:22:17;69.60;;;63.60;;
836;SDS011;400;53.550;9.932;2022-08-19T14:24:44;17.60;;;16.20;;
836;SDS011;400;53.550;9.932;2022-08-19T14:27:12;32.43;;;30.03;;
836;SDS011;400;53.550;9.932;2022-08-19T14:29:39;17.00;;;15.80;;
836;SDS011;400;53.550;9.932;2022-08-19T14:32:07;17.70;;;16.27;;
836;SDS011;400;53.550;9.932;2022-08-19T14:34:38;16.13;;;14.83;;
836;SDS011;400;53.550;9.932;2022-08-19T14:37:06;15.60;;;14.50;;
836;SDS011;400;53.550;9.932;2022-08-19T14:39:34;15.53;;;14.37;;
836;SDS011;400;53.550;9.932;2022-08-19T14:42:06;16.47;;;15.17;;
836;SDS011;400;53.550;9.932;2022-08-19T14:44:33;16.60;;;15.20;;
836;SDS011;400;53.550;9.932;2022-08-19T14:47:00;16.20;;;14.90;;
836;SDS011;400;53.550;9.932;2022-08-19T14:49:28;16.37;;;15.17;;
836;SDS011;400;53.550;9.932;2022-08-19T14:51:58;16.30;;;15.00;;
836;SDS011;400;53.550;9.932;2022-08-19T14:54:29;17.97;;;16.57;;
836;SDS011;400;53.550;9.932;2022-08-19T14:56:57;16.73;;;15.43;;
836;SDS011;400;53.550;9.932;2022-08-19T14:59:24;16.00;;;14.50;;
836;SDS011;400;53.550;9.932;2022-08-19T15:01:52;14.43;;;13.23;;
836;SDS011;400;53.550;9.932;2022-08-19T15:04:19;13.97;;;12.83;;
836;SDS011;400;53.550;9.932;2022-08-19T15:06:49;16.53;;;15.07;;
836;SDS011;400;53.550;9.932;2022-08-19T15:09:18;15.40;;;14.30;;
836;SDS011;400;53.550;9.932;2022-08-19T15:11:51;16.03;;;14.73;;
836;SDS011;400;53.550;9.932;2022-08-19T15:14:20;13.97;;;12.90;;
836;SDS011;400;53.550;9.932;2022-08-19T15:16:50;15.00;;;14.00;;
836;SDS011;400;53.550;9.932;2022-08-19T15:19:21;27.70;;;25.63;;
836;SDS011;400;53.550;9.932;2022-08-19T15:21:53;12.97;;;11.90;;
836;SDS011;400;53.550;9.932;2022-08-19T15:24:22;13.30;;;12.30;;
836;SDS011;400;53.550;9.932;2022-08-19T15:26:51;13.93;;;12.93;;
836;SDS011;400;53.550;9.932;2022-08-19T15:29:20;14.07;;;12.90;;
836;SDS011;400;53.550;9.932;2022-08-19T15:31:49;14.80;;;13.70;;
836;SDS011;400;53.550;9.932;2022-08-19T15:34:21;12.97;;;11.87;;
836;SDS011;400;53.550;9.932;2022-08-19T15:36:49;12.80;;;11.83;;
836;SDS011;400;53.550;9.932;2022-08-19T15:39:23;13.03;;;12.17;;